sensor_id;sensor_type;location;lat;lon;timestamp;P1;durP1;ratioP1;P2;durP2;ratioP2
62463;SDS011;48512;48.552;9.380;2024-03-07T00:01:18;73.32;;;27.85;;
62463;SDS011;48512;48.552;9.380;2024-03-07T00:03:46;73.72;;;27.98;;
62463;SDS011;48512;48.552;9.380;2024-03-07T00:06:12;70.07;;;26.48;;
62463;SDS011;48512;48.552;9.380;2024-03-07T00:08:38;67.93;;;26.98;;
62463;SDS011;48512;48.552;9.380;2024-03-07T00:11:04;74.57;;;27.88;;
62463;SDS011;48512;48.552;9.380;2024-03-07T00:13:33;72.78;;;26.88;;
62463;SDS011;48512;48.552;9.380;2024-03-07T00:15:59;70.13;;;27.40;;
62463;SDS011;48512;48.552;9.380;2024-03-07T00:18:25;73.82;;;26.00;;
62463;SDS011;48512;48.552;9.380;2024-03-07T00:20:52;69.80;;;25.92;;
62463;SDS011;48512;48.552;9.380;2024-03-07T00:23:18;69.32;;;25.90;;
62463;SDS011;48512;48.552;9.380;2024-03-07T00:25:44;73.18;;;27.35;;
62463;SDS011;48512;48.552;9.380;2024-03-07T00:28:10;66.00;;;25.42;;
62463;SDS011;48512;48.552;9.380;2024-03-07T00:30:37;73.07;;;26.10;;
62463;SDS011;48512;48.552;9.380;2024-03-07T00:33:03;66.90;;;26.20;;
62463;SDS011;48512;48.552;9.380;2024-03-07T00:35:30;67.57;;;25.52;;
62463;SDS011;48512;48.552;9.380;2024-03-07T00:37:56;74.38;;;26.05;;
62463;SDS011;48512;48.552;9.380;2024-03-07T00:40:23;64.95;;;24.67;;
62463;SDS011;48512;48.552;9.380;2024-03-07T00:42:49;66.65;;;26.25;;
62463;SDS011;48512;48.552;9.380;2024-03-07T00:45:16;62.47;;;24.73;;
62463;SDS011;48512;48.552;9.380;2024-03-07T00:47:43;64.20;;;24.27;;
62463;SDS011;48512;48.552;9.380;2024-03-07T00:50:09;60.05;;;24.65;;
62463;SDS011;48512;48.552;9.380;2024-03-07T00:52:36;59.25;;;24.10;;
62463;SDS011;48512;48.552;9.380;2024-03-07T00:55:02;59.10;;;22.83;;
62463;SDS011;48512;48.552;9.380;2024-03-07T00:57:29;61.33;;;23.73;;
62463;SDS011;48512;48.552;9.380;2024-03-07T00:59:55;57.90;;;22.88;;
62463;SDS011;48512;48.552;9.380;2024-03-07T01:02:22;58.28;;;24.58;;
62463;SDS011;48512;48.552;9.380;2024-03-07T01:04:48;58.63;;;23.77;;
62463;SDS011;48512;48.552;9.380;2024-03-07T01:07:14;61.50;;;23.92;;
62463;SDS011;48512;48.552;9.380;2024-03-07T01:09:40;62.17;;;23.75;;
62463;SDS011;48512;48.552;9.380;2024-03-07T01:12:06;63.15;;;25.35;;
62463;SDS011;48512;48.552;9.380;2024-03-07T01:14:33;54.33;;;23.80;;
62463;SDS011;48512;48.552;9.380;2024-03-07T01:16:59;57.90;;;23.33;;
62463;SDS011;48512;48.552;9.380;2024-03-07T01:19:25;59.45;;;23.67;;
62463;SDS011;48512;48.552;9.380;2024-03-07T01:21:51;54.10;;;21.65;;
62463;SDS011;48512;48.552;9.380;2024-03-07T01:24:17;55.28;;;24.25;;
62463;SDS011;48512;48.552;9.380;2024-03-07T01:26:46;55.03;;;22.88;;
62463;SDS011;48512;48.552;9.380;2024-03-07T01:29:12;60.50;;;24.02;;
62463;SDS011;48512;48.552;9.380;2024-03-07T01:31:39;59.38;;;24.42;;
62463;SDS011;48512;48.552;9.380;2024-03-07T01:34:05;53.97;;;22.55;;
62463;SDS011;48512;48.552;9.380;2024-03-07T01:36:31;59.85;;;23.55;;
62463;SDS011;48512;48.552;9.380;2024-03-07T01:38:57;62.65;;;24.95;;
62463;SDS011;48512;48.552;9.380;2024-03-07T01:41:23;58.45;;;23.50;;
62463;SDS011;48512;48.552;9.380;2024-03-07T01:43:50;57.17;;;25.05;;
62463;SDS011;48512;48.552;9.380;2024-03-07T01:46:16;64.63;;;24.08;;
62463;SDS011;48512;48.552;9.380;2024-03-07T01:48:42;56.55;;;23.42;;
62463;SDS011;48512;48.552;9.380;2024-03-07T01:51:09;59.38;;;23.50;;
62463;SDS011;48512;48.552;9.380;2024-03-07T01:53:35;54.53;;;22.65;;
62463;SDS011;48512;48.552;9.380;2024-03-07T01:56:02;61.42;;;23.73;;
62463;SDS011;48512;48.552;9.380;2024-03-07T01:58:29;57.13;;;24.45;;
62463;SDS011;48512;48.552;9.380;2024-03-07T02:00:59;56.55;;;21.42;;
62463;SDS011;48512;48.552;9.380;2024-03-07T02:03:25;60.08;;;24.70;;
62463;SDS011;48512;48.552;9.380;2024-03-07T02:05:51;54.83;;;23.50;;
62463;SDS011;48512;48.552;9.380;2024-03-07T02:08:18;56.33;;;21.67;;
62463;SDS011;48512;48.552;9.380;2024-03-07T02:10:45;54.97;;;23.80;;
62463;SDS011;48512;48.552;9.380;2024-03-07T02:13:12;56.80;;;21.98;;
62463;SDS011;48512;48.552;9.380;2024-03-07T02:15:38;54.75;;;23.25;;
62463;SDS011;48512;48.552;9.380;2024-03-07T02:18:04;50.78;;;22.75;;
62463;SDS011;48512;48.552;9.380;2024-03-07T02:20:31;56.03;;;22.52;;
62463;SDS011;48512;48.552;9.380;2024-03-07T02:22:57;52.13;;;22.17;;
62463;SDS011;48512;48.552;9.380;2024-03-07T02:25:23;55.65;;;23.02;;
62463;SDS011;48512;48.552;9.380;2024-03-07T02:27:49;60.83;;;26.65;;
62463;SDS011;48512;48.552;9.380;2024-03-07T02:30:15;62.28;;;23.98;;
62463;SDS011;48512;48.552;9.380;2024-03-07T02:32:45;56.63;;;23.63;;
62463;SDS011;48512;48.552;9.380;2024-03-07T02:35:17;53.25;;;22.67;;
62463;SDS011;48512;48.552;9.380;2024-03-07T02:37:44;59.63;;;24.67;;
62463;SDS011;48512;48.552;9.380;2024-03-07T02:40:11;54.92;;;23.15;;
62463;SDS011;48512;48.552;9.380;2024-03-07T02:42:38;54.33;;;23.80;;
62463;SDS011;48512;48.552;9.380;2024-03-07T02:45:04;55.05;;;23.40;;
62463;SDS011;48512;48.552;9.380;2024-03-07T02:47:30;55.40;;;23.10;;
62463;SDS011;48512;48.552;9.380;2024-03-07T02:49:57;51.40;;;22.13;;
62463;SDS011;48512;48.552;9.380;2024-03-07T02:52:23;54.20;;;21.92;;
62463;SDS011;48512;48.552;9.380;2024-03-07T02:54:49;52.60;;;23.33;;
62463;SDS011;48512;48.552;9.380;2024-03-07T02:57:15;56.88;;;23.17;;
62463;SDS011;48512;48.552;9.380;2024-03-07T02:59:41;53.50;;;23.17;;
62463;SDS011;48512;48.552;9.380;2024-03-07T03:02:07;56.60;;;23.02;;
62463;SDS011;48512;48.552;9.380;2024-03-07T03:04:33;54.30;;;22.50;;
62463;SDS011;48512;48.552;9.380;2024-03-07T03:07:00;53.38;;;23.02;;
62463;SDS011;48512;48.552;9.380;2024-03-07T03:09:26;52.28;;;21.80;;
62463;SDS011;48512;48.552;9.380;2024-03-07T03:11:53;55.53;;;23.67;;
62463;SDS011;48512;48.552;9.380;2024-03-07T03:14:19;55.95;;;22.52;;
62463;SDS011;48512;48.552;9.380;2024-03-07T03:16:46;51.80;;;23.17;;
62463;SDS011;48512;48.552;9.380;2024-03-07T03:19:13;52.58;;;22.98;;
62463;SDS011;48512;48.552;9.380;2024-03-07T03:21:39;52.55;;;22.65;;
62463;SDS011;48512;48.552;9.380;2024-03-07T03:24:05;52.47;;;23.65;;
62463;SDS011;48512;48.552;9.380;2024-03-07T03:26:33;51.63;;;21.75;;
62463;SDS011;48512;48.552;9.380;2024-03-07T03:28:59;51.47;;;23.23;;
62463;SDS011;48512;48.552;9.380;2024-03-07T03:31:25;49.83;;;22.60;;
62463;SDS011;48512;48.552;9.380;2024-03-07T03:33:51;52.47;;;22.95;;
62463;SDS011;48512;48.552;9.380;2024-03-07T03:36:17;53.15;;;22.90;;
62463;SDS011;48512;48.552;9.380;2024-03-07T03:38:44;56.00;;;23.90;;
62463;SDS011;48512;48.552;9.380;2024-03-07T03:41:17;51.40;;;23.15;;
62463;SDS011;48512;48.552;9.380;2024-03-07T03:43:43;55.05;;;23.45;;
62463;SDS011;48512;48.552;9.380;2024-03-07T03:46:10;52.70;;;24.02;;
62463;SDS011;48512;48.552;9.380;2024-03-07T03:48:39;58.15;;;24.42;;
62463;SDS011;48512;48.552;9.380;2024-03-07T03:51:06;56.30;;;24.60;;
62463;SDS011;48512;48.552;9.380;2024-03-07T03:53:34;59.45;;;25.30;;
62463;SDS011;48512;48.552;9.380;2024-03-07T03:56:01;57.17;;;23.48;;
62463;SDS011;48512;48.552;9.380;2024-03-07T03:58:27;57.65;;;25.50;;
62463;SDS011;48512;48.552;9.380;2024-03-07T04:00:53;60.28;;;25.27;;
62463;SDS011;48512;48.552;9.380;2024-03-07T04:03:19;61.25;;;25.55;;
62463;SDS011;48512;48.552;9.380;2024-03-07T04:05:46;57.25;;;24.10;;
62463;SDS011;48512;48.552;9.380;2024-03-07T04:08:12;60.42;;;25.38;;
62463;SDS011;48512;48.552;9.380;2024-03-07T04:10:39;54.40;;;24.70;;
62463;SDS011;48512;48.552;9.380;2024-03-07T04:13:05;66.75;;;27.92;;
62463;SDS011;48512;48.552;9.380;2024-03-07T04:15:31;60.08;;;26.10;;
62463;SDS011;48512;48.552;9.380;2024-03-07T04:17:58;57.80;;;25.85;;
62463;SDS011;48512;48.552;9.380;2024-03-07T04:20:24;61.95;;;25.70;;
62463;SDS011;48512;48.552;9.380;2024-03-07T04:22:50;61.90;;;27.30;;
62463;SDS011;48512;48.552;9.380;2024-03-07T04:25:16;60.22;;;25.35;;
62463;SDS011;48512;48.552;9.380;2024-03-07T04:27:43;60.60;;;26.33;;
62463;SDS011;48512;48.552;9.380;2024-03-07T04:30:09;66.05;;;27.95;;
62463;SDS011;48512;48.552;9.380;2024-03-07T04:32:39;63.30;;;26.65;;
62463;SDS011;48512;48.552;9.380;2024-03-07T04:35:07;58.80;;;25.90;;
62463;SDS011;48512;48.552;9.380;2024-03-07T04:37:36;57.78;;;25.20;;
62463;SDS011;48512;48.552;9.380;2024-03-07T04:40:06;63.17;;;25.40;;
62463;SDS011;48512;48.552;9.380;2024-03-07T04:42:43;56.97;;;25.67;;
62463;SDS011;48512;48.552;9.380;2024-03-07T04:45:15;61.58;;;26.90;;
62463;SDS011;48512;48.552;9.380;2024-03-07T04:47:42;60.75;;;25.83;;
62463;SDS011;48512;48.552;9.380;2024-03-07T04:50:10;62.58;;;26.95;;
62463;SDS011;48512;48.552;9.380;2024-03-07T04:52:38;55.80;;;25.40;;
62463;SDS011;48512;48.552;9.380;2024-03-07T04:55:05;58.78;;;25.42;;
62463;SDS011;48512;48.552;9.380;2024-03-07T04:57:37;60.17;;;25.63;;
62463;SDS011;48512;48.552;9.380;2024-03-07T05:00:06;62.55;;;26.83;;
62463;SDS011;48512;48.552;9.380;2024-03-07T05:02:33;56.85;;;24.73;;
62463;SDS011;48512;48.552;9.380;2024-03-07T05:04:59;55.38;;;24.60;;
62463;SDS011;48512;48.552;9.380;2024-03-07T05:07:25;60.75;;;26.02;;
62463;SDS011;48512;48.552;9.380;2024-03-07T05:09:52;62.00;;;26.00;;
62463;SDS011;48512;48.552;9.380;2024-03-07T05:12:18;67.55;;;27.65;;
62463;SDS011;48512;48.552;9.380;2024-03-07T05:14:44;64.57;;;25.42;;
62463;SDS011;48512;48.552;9.380;2024-03-07T05:17:10;63.28;;;28.10;;
62463;SDS011;48512;48.552;9.380;2024-03-07T05:19:36;57.58;;;26.27;;
62463;SDS011;48512;48.552;9.380;2024-03-07T05:22:02;65.00;;;28.25;;
62463;SDS011;48512;48.552;9.380;2024-03-07T05:24:32;60.88;;;27.17;;
62463;SDS011;48512;48.552;9.380;2024-03-07T05:26:59;66.63;;;26.40;;
62463;SDS011;48512;48.552;9.380;2024-03-07T05:29:25;60.10;;;26.63;;
62463;SDS011;48512;48.552;9.380;2024-03-07T05:31:52;60.22;;;26.95;;
62463;SDS011;48512;48.552;9.380;2024-03-07T05:34:18;62.13;;;26.42;;
62463;SDS011;48512;48.552;9.380;2024-03-07T05:36:45;57.15;;;27.00;;
62463;SDS011;48512;48.552;9.380;2024-03-07T05:39:12;63.83;;;28.27;;
62463;SDS011;48512;48.552;9.380;2024-03-07T05:41:40;62.88;;;27.73;;
62463;SDS011;48512;48.552;9.380;2024-03-07T05:44:08;67.18;;;27.90;;
62463;SDS011;48512;48.552;9.380;2024-03-07T05:46:39;61.20;;;27.17;;
62463;SDS011;48512;48.552;9.380;2024-03-07T05:49:12;64.38;;;26.60;;
62463;SDS011;48512;48.552;9.380;2024-03-07T05:51:39;64.93;;;27.17;;
62463;SDS011;48512;48.552;9.380;2024-03-07T05:54:07;65.97;;;28.08;;
62463;SDS011;48512;48.552;9.380;2024-03-07T05:56:34;59.78;;;25.92;;
62463;SDS011;48512;48.552;9.380;2024-03-07T05:59:04;68.90;;;29.50;;
62463;SDS011;48512;48.552;9.380;2024-03-07T06:01:33;63.13;;;27.90;;
62463;SDS011;48512;48.552;9.380;2024-03-07T06:04:00;68.47;;;28.85;;
62463;SDS011;48512;48.552;9.380;2024-03-07T06:06:27;60.17;;;26.90;;
62463;SDS011;48512;48.552;9.380;2024-03-07T06:11:23;67.80;;;27.67;;
62463;SDS011;48512;48.552;9.380;2024-03-07T06:13:49;39.88;;;15.50;;
62463;SDS011;48512;48.552;9.380;2024-03-07T06:16:16;60.20;;;24.75;;
62463;SDS011;48512;48.552;9.380;2024-03-07T06:18:43;73.97;;;30.55;;
62463;SDS011;48512;48.552;9.380;2024-03-07T06:21:12;70.85;;;30.63;;
62463;SDS011;48512;48.552;9.380;2024-03-07T06:23:39;63.72;;;28.00;;
62463;SDS011;48512;48.552;9.380;2024-03-07T06:26:05;65.70;;;29.60;;
62463;SDS011;48512;48.552;9.380;2024-03-07T06:28:38;65.60;;;28.40;;
62463;SDS011;48512;48.552;9.380;2024-03-07T06:31:05;65.30;;;28.10;;
62463;SDS011;48512;48.552;9.380;2024-03-07T06:33:33;68.72;;;28.73;;
62463;SDS011;48512;48.552;9.380;2024-03-07T06:36:00;64.63;;;26.63;;
62463;SDS011;48512;48.552;9.380;2024-03-07T06:38:28;66.47;;;27.33;;
62463;SDS011;48512;48.552;9.380;2024-03-07T06:40:55;64.60;;;28.48;;
62463;SDS011;48512;48.552;9.380;2024-03-07T06:43:21;67.75;;;30.13;;
62463;SDS011;48512;48.552;9.380;2024-03-07T06:45:47;69.15;;;28.70;;
62463;SDS011;48512;48.552;9.380;2024-03-07T06:48:13;67.30;;;28.98;;
62463;SDS011;48512;48.552;9.380;2024-03-07T06:50:40;63.13;;;26.80;;
62463;SDS011;48512;48.552;9.380;2024-03-07T06:53:06;67.30;;;29.45;;
62463;SDS011;48512;48.552;9.380;2024-03-07T06:55:32;67.03;;;28.17;;
62463;SDS011;48512;48.552;9.380;2024-03-07T06:58:03;63.95;;;28.85;;
62463;SDS011;48512;48.552;9.380;2024-03-07T07:00:30;65.00;;;28.02;;
62463;SDS011;48512;48.552;9.380;2024-03-07T07:02:59;68.20;;;28.27;;
62463;SDS011;48512;48.552;9.380;2024-03-07T07:05:25;65.75;;;27.42;;
62463;SDS011;48512;48.552;9.380;2024-03-07T07:07:51;62.55;;;27.83;;
62463;SDS011;48512;48.552;9.380;2024-03-07T07:10:17;61.72;;;27.60;;
62463;SDS011;48512;48.552;9.380;2024-03-07T07:15:16;63.40;;;27.63;;
62463;SDS011;48512;48.552;9.380;2024-03-07T07:17:44;60.63;;;27.48;;
62463;SDS011;48512;48.552;9.380;2024-03-07T07:20:15;65.72;;;27.52;;
62463;SDS011;48512;48.552;9.380;2024-03-07T07:22:43;66.13;;;27.80;;
62463;SDS011;48512;48.552;9.380;2024-03-07T07:25:10;69.40;;;29.75;;
62463;SDS011;48512;48.552;9.380;2024-03-07T07:27:40;69.35;;;29.77;;
62463;SDS011;48512;48.552;9.380;2024-03-07T07:30:10;70.68;;;29.05;;
62463;SDS011;48512;48.552;9.380;2024-03-07T07:32:37;67.78;;;29.50;;
62463;SDS011;48512;48.552;9.380;2024-03-07T07:35:03;68.53;;;28.85;;
62463;SDS011;48512;48.552;9.380;2024-03-07T07:37:37;73.90;;;30.33;;
62463;SDS011;48512;48.552;9.380;2024-03-07T07:40:07;76.72;;;30.02;;
62463;SDS011;48512;48.552;9.380;2024-03-07T07:42:37;70.13;;;29.05;;
62463;SDS011;48512;48.552;9.380;2024-03-07T07:45:05;71.57;;;30.65;;
62463;SDS011;48512;48.552;9.380;2024-03-07T07:47:32;65.57;;;28.25;;
62463;SDS011;48512;48.552;9.380;2024-03-07T07:49:58;70.13;;;30.30;;
62463;SDS011;48512;48.552;9.380;2024-03-07T07:52:24;65.13;;;28.60;;
62463;SDS011;48512;48.552;9.380;2024-03-07T07:54:50;75.65;;;31.23;;
62463;SDS011;48512;48.552;9.380;2024-03-07T07:57:17;66.35;;;29.08;;
62463;SDS011;48512;48.552;9.380;2024-03-07T07:59:43;72.72;;;29.77;;
62463;SDS011;48512;48.552;9.380;2024-03-07T08:02:09;71.10;;;28.40;;
62463;SDS011;48512;48.552;9.380;2024-03-07T08:04:36;63.60;;;27.95;;
62463;SDS011;48512;48.552;9.380;2024-03-07T08:07:02;67.75;;;28.58;;
62463;SDS011;48512;48.552;9.380;2024-03-07T08:09:30;69.05;;;29.83;;
62463;SDS011;48512;48.552;9.380;2024-03-07T08:11:56;61.30;;;28.13;;
62463;SDS011;48512;48.552;9.380;2024-03-07T08:14:23;68.43;;;29.60;;
62463;SDS011;48512;48.552;9.380;2024-03-07T08:16:49;66.53;;;29.55;;
62463;SDS011;48512;48.552;9.380;2024-03-07T08:19:16;64.93;;;27.40;;
62463;SDS011;48512;48.552;9.380;2024-03-07T08:21:43;60.25;;;26.58;;
62463;SDS011;48512;48.552;9.380;2024-03-07T08:24:09;61.50;;;26.08;;
62463;SDS011;48512;48.552;9.380;2024-03-07T08:26:36;58.30;;;26.30;;
62463;SDS011;48512;48.552;9.380;2024-03-07T08:29:03;60.22;;;26.50;;
62463;SDS011;48512;48.552;9.380;2024-03-07T08:31:29;69.68;;;28.80;;
62463;SDS011;48512;48.552;9.380;2024-03-07T08:33:55;71.20;;;28.88;;
62463;SDS011;48512;48.552;9.380;2024-03-07T08:36:21;66.70;;;27.73;;
62463;SDS011;48512;48.552;9.380;2024-03-07T08:38:48;66.82;;;28.33;;
62463;SDS011;48512;48.552;9.380;2024-03-07T08:41:14;64.97;;;27.95;;
62463;SDS011;48512;48.552;9.380;2024-03-07T08:43:40;60.53;;;27.23;;
62463;SDS011;48512;48.552;9.380;2024-03-07T08:46:07;69.28;;;27.42;;
62463;SDS011;48512;48.552;9.380;2024-03-07T08:48:34;61.55;;;26.50;;
62463;SDS011;48512;48.552;9.380;2024-03-07T08:51:01;57.75;;;25.83;;
62463;SDS011;48512;48.552;9.380;2024-03-07T08:53:27;54.25;;;24.20;;
62463;SDS011;48512;48.552;9.380;2024-03-07T08:55:53;55.28;;;23.55;;
62463;SDS011;48512;48.552;9.380;2024-03-07T08:58:19;55.53;;;24.00;;
62463;SDS011;48512;48.552;9.380;2024-03-07T09:00:46;54.05;;;22.33;;
62463;SDS011;48512;48.552;9.380;2024-03-07T09:03:12;53.00;;;23.48;;
62463;SDS011;48512;48.552;9.380;2024-03-07T09:05:38;52.97;;;22.83;;
62463;SDS011;48512;48.552;9.380;2024-03-07T09:08:04;55.45;;;24.35;;
62463;SDS011;48512;48.552;9.380;2024-03-07T09:10:31;55.00;;;22.67;;
62463;SDS011;48512;48.552;9.380;2024-03-07T09:13:00;52.03;;;22.70;;
62463;SDS011;48512;48.552;9.380;2024-03-07T09:15:26;47.92;;;20.80;;
62463;SDS011;48512;48.552;9.380;2024-03-07T09:17:53;56.50;;;22.95;;
62463;SDS011;48512;48.552;9.380;2024-03-07T09:20:19;51.28;;;22.20;;
62463;SDS011;48512;48.552;9.380;2024-03-07T09:22:46;55.70;;;25.13;;
62463;SDS011;48512;48.552;9.380;2024-03-07T09:25:16;48.22;;;20.52;;
62463;SDS011;48512;48.552;9.380;2024-03-07T09:27:44;48.17;;;21.60;;
62463;SDS011;48512;48.552;9.380;2024-03-07T09:30:10;51.15;;;22.98;;
62463;SDS011;48512;48.552;9.380;2024-03-07T09:32:49;52.65;;;21.58;;
62463;SDS011;48512;48.552;9.380;2024-03-07T09:35:17;46.50;;;20.73;;
62463;SDS011;48512;48.552;9.380;2024-03-07T09:37:43;45.97;;;18.85;;
62463;SDS011;48512;48.552;9.380;2024-03-07T09:40:10;46.58;;;20.73;;
62463;SDS011;48512;48.552;9.380;2024-03-07T09:42:44;48.75;;;20.95;;
62463;SDS011;48512;48.552;9.380;2024-03-07T09:45:13;43.55;;;18.95;;
62463;SDS011;48512;48.552;9.380;2024-03-07T09:47:47;42.90;;;19.33;;
62463;SDS011;48512;48.552;9.380;2024-03-07T09:50:16;45.08;;;19.63;;
62463;SDS011;48512;48.552;9.380;2024-03-07T09:52:45;45.35;;;19.48;;
62463;SDS011;48512;48.552;9.380;2024-03-07T09:55:13;49.38;;;21.90;;
62463;SDS011;48512;48.552;9.380;2024-03-07T09:57:39;43.65;;;19.15;;
62463;SDS011;48512;48.552;9.380;2024-03-07T10:00:07;46.75;;;20.48;;
62463;SDS011;48512;48.552;9.380;2024-03-07T10:02:38;51.80;;;20.08;;
62463;SDS011;48512;48.552;9.380;2024-03-07T10:05:07;45.92;;;20.25;;
62463;SDS011;48512;48.552;9.380;2024-03-07T10:07:36;46.85;;;20.58;;
62463;SDS011;48512;48.552;9.380;2024-03-07T10:10:02;46.80;;;20.40;;
62463;SDS011;48512;48.552;9.380;2024-03-07T10:12:35;47.20;;;20.33;;
62463;SDS011;48512;48.552;9.380;2024-03-07T10:15:03;45.67;;;19.75;;
62463;SDS011;48512;48.552;9.380;2024-03-07T10:17:39;45.88;;;19.73;;
62463;SDS011;48512;48.552;9.380;2024-03-07T10:20:06;51.13;;;21.55;;
62463;SDS011;48512;48.552;9.380;2024-03-07T10:22:42;46.38;;;19.30;;
62463;SDS011;48512;48.552;9.380;2024-03-07T10:25:08;45.80;;;20.13;;
62463;SDS011;48512;48.552;9.380;2024-03-07T10:27:36;42.30;;;19.27;;
62463;SDS011;48512;48.552;9.380;2024-03-07T10:30:04;46.25;;;18.42;;
62463;SDS011;48512;48.552;9.380;2024-03-07T10:32:33;41.05;;;18.10;;
62463;SDS011;48512;48.552;9.380;2024-03-07T10:34:59;42.53;;;17.10;;
62463;SDS011;48512;48.552;9.380;2024-03-07T10:37:25;39.13;;;18.00;;
62463;SDS011;48512;48.552;9.380;2024-03-07T10:39:51;36.83;;;16.85;;
62463;SDS011;48512;48.552;9.380;2024-03-07T10:42:18;38.63;;;17.13;;
62463;SDS011;48512;48.552;9.380;2024-03-07T10:44:47;39.22;;;16.95;;
62463;SDS011;48512;48.552;9.380;2024-03-07T10:49:46;43.30;;;17.55;;
62463;SDS011;48512;48.552;9.380;2024-03-07T10:52:27;40.60;;;17.58;;
62463;SDS011;48512;48.552;9.380;2024-03-07T10:55:05;41.05;;;17.35;;
62463;SDS011;48512;48.552;9.380;2024-03-07T10:57:52;38.08;;;15.82;;
62463;SDS011;48512;48.552;9.380;2024-03-07T11:00:27;39.58;;;17.15;;
62463;SDS011;48512;48.552;9.380;2024-03-07T11:03:01;42.25;;;17.20;;
62463;SDS011;48512;48.552;9.380;2024-03-07T11:05:33;38.00;;;16.88;;
62463;SDS011;48512;48.552;9.380;2024-03-07T11:08:00;37.92;;;16.40;;
62463;SDS011;48512;48.552;9.380;2024-03-07T11:10:37;38.90;;;16.40;;
62463;SDS011;48512;48.552;9.380;2024-03-07T11:13:08;37.65;;;16.88;;
62463;SDS011;48512;48.552;9.380;2024-03-07T11:15:37;36.40;;;17.17;;
62463;SDS011;48512;48.552;9.380;2024-03-07T11:18:05;36.88;;;16.88;;
62463;SDS011;48512;48.552;9.380;2024-03-07T11:20:34;36.97;;;17.27;;
62463;SDS011;48512;48.552;9.380;2024-03-07T11:23:24;40.33;;;17.40;;
62463;SDS011;48512;48.552;9.380;2024-03-07T11:26:15;34.15;;;16.10;;
62463;SDS011;48512;48.552;9.380;2024-03-07T11:28:42;35.45;;;16.67;;
62463;SDS011;48512;48.552;9.380;2024-03-07T11:36:44;36.65;;;17.75;;
62463;SDS011;48512;48.552;9.380;2024-03-07T11:42:25;37.60;;;17.38;;
62463;SDS011;48512;48.552;9.380;2024-03-07T11:44:52;39.78;;;18.08;;
62463;SDS011;48512;48.552;9.380;2024-03-07T11:47:22;39.15;;;17.75;;
62463;SDS011;48512;48.552;9.380;2024-03-07T11:49:50;39.17;;;18.98;;
62463;SDS011;48512;48.552;9.380;2024-03-07T11:52:20;43.63;;;20.00;;
62463;SDS011;48512;48.552;9.380;2024-03-07T11:54:47;45.10;;;20.42;;
62463;SDS011;48512;48.552;9.380;2024-03-07T11:57:15;44.85;;;20.73;;
62463;SDS011;48512;48.552;9.380;2024-03-07T11:59:42;47.38;;;21.50;;
62463;SDS011;48512;48.552;9.380;2024-03-07T12:02:14;47.38;;;22.40;;
62463;SDS011;48512;48.552;9.380;2024-03-07T12:04:41;49.28;;;23.38;;
62463;SDS011;48512;48.552;9.380;2024-03-07T12:07:07;51.70;;;24.92;;
62463;SDS011;48512;48.552;9.380;2024-03-07T12:09:36;47.70;;;22.40;;
62463;SDS011;48512;48.552;9.380;2024-03-07T12:12:04;51.67;;;23.73;;
62463;SDS011;48512;48.552;9.380;2024-03-07T12:14:35;49.08;;;24.38;;
62463;SDS011;48512;48.552;9.380;2024-03-07T12:17:01;51.30;;;22.90;;
62463;SDS011;48512;48.552;9.380;2024-03-07T12:19:32;49.60;;;25.10;;
62463;SDS011;48512;48.552;9.380;2024-03-07T12:22:02;50.95;;;22.98;;
62463;SDS011;48512;48.552;9.380;2024-03-07T12:24:29;51.95;;;23.85;;
62463;SDS011;48512;48.552;9.380;2024-03-07T12:27:11;51.85;;;24.30;;
62463;SDS011;48512;48.552;9.380;2024-03-07T12:29:39;52.70;;;25.38;;
62463;SDS011;48512;48.552;9.380;2024-03-07T12:32:08;52.70;;;24.00;;
62463;SDS011;48512;48.552;9.380;2024-03-07T12:34:39;51.40;;;24.75;;
62463;SDS011;48512;48.552;9.380;2024-03-07T12:37:11;52.92;;;24.20;;
62463;SDS011;48512;48.552;9.380;2024-03-07T12:39:42;52.15;;;24.40;;
62463;SDS011;48512;48.552;9.380;2024-03-07T12:42:14;50.45;;;24.20;;
62463;SDS011;48512;48.552;9.380;2024-03-07T12:44:42;47.53;;;24.17;;
62463;SDS011;48512;48.552;9.380;2024-03-07T12:47:14;48.17;;;24.90;;
62463;SDS011;48512;48.552;9.380;2024-03-07T12:49:42;45.97;;;23.42;;
62463;SDS011;48512;48.552;9.380;2024-03-07T12:52:09;47.13;;;23.40;;
62463;SDS011;48512;48.552;9.380;2024-03-07T12:54:36;50.08;;;23.40;;
62463;SDS011;48512;48.552;9.380;2024-03-07T12:57:08;50.35;;;24.30;;
62463;SDS011;48512;48.552;9.380;2024-03-07T13:02:04;52.97;;;23.88;;
62463;SDS011;48512;48.552;9.380;2024-03-07T13:04:35;52.58;;;25.30;;
62463;SDS011;48512;48.552;9.380;2024-03-07T13:07:07;48.53;;;23.88;;
62463;SDS011;48512;48.552;9.380;2024-03-07T13:09:33;50.95;;;23.15;;
62463;SDS011;48512;48.552;9.380;2024-03-07T13:12:00;45.53;;;24.05;;
62463;SDS011;48512;48.552;9.380;2024-03-07T13:14:27;50.15;;;24.27;;
62463;SDS011;48512;48.552;9.380;2024-03-07T13:16:58;56.65;;;25.85;;
62463;SDS011;48512;48.552;9.380;2024-03-07T13:19:29;52.83;;;26.20;;
62463;SDS011;48512;48.552;9.380;2024-03-07T13:21:56;51.28;;;24.83;;
62463;SDS011;48512;48.552;9.380;2024-03-07T13:24:22;50.33;;;24.88;;
62463;SDS011;48512;48.552;9.380;2024-03-07T13:26:50;51.65;;;25.05;;
62463;SDS011;48512;48.552;9.380;2024-03-07T13:29:16;48.30;;;23.65;;
62463;SDS011;48512;48.552;9.380;2024-03-07T13:31:43;52.15;;;23.83;;
62463;SDS011;48512;48.552;9.380;2024-03-07T13:34:10;49.65;;;24.23;;
62463;SDS011;48512;48.552;9.380;2024-03-07T13:36:42;48.53;;;24.45;;
62463;SDS011;48512;48.552;9.380;2024-03-07T13:39:09;52.65;;;24.52;;
62463;SDS011;48512;48.552;9.380;2024-03-07T13:41:37;45.55;;;22.55;;
62463;SDS011;48512;48.552;9.380;2024-03-07T13:44:04;46.83;;;22.48;;
62463;SDS011;48512;48.552;9.380;2024-03-07T13:46:31;51.67;;;22.35;;
62463;SDS011;48512;48.552;9.380;2024-03-07T13:48:59;45.95;;;22.40;;
62463;SDS011;48512;48.552;9.380;2024-03-07T13:51:33;48.78;;;22.40;;
62463;SDS011;48512;48.552;9.380;2024-03-07T13:54:01;48.55;;;22.48;;
62463;SDS011;48512;48.552;9.380;2024-03-07T13:59:47;52.47;;;23.40;;
62463;SDS011;48512;48.552;9.380;2024-03-07T14:11:06;47.20;;;22.02;;
62463;SDS011;48512;48.552;9.380;2024-03-07T14:19:32;44.53;;;21.45;;
62463;SDS011;48512;48.552;9.380;2024-03-07T14:23:01;44.47;;;22.02;;
62463;SDS011;48512;48.552;9.380;2024-03-07T14:31:07;48.10;;;22.95;;
62463;SDS011;48512;48.552;9.380;2024-03-07T14:36:37;45.28;;;21.85;;
62463;SDS011;48512;48.552;9.380;2024-03-07T14:39:07;48.78;;;22.38;;
62463;SDS011;48512;48.552;9.380;2024-03-07T14:41:43;44.60;;;21.88;;
62463;SDS011;48512;48.552;9.380;2024-03-07T14:44:11;41.55;;;21.95;;
62463;SDS011;48512;48.552;9.380;2024-03-07T14:46:37;44.97;;;21.75;;
62463;SDS011;48512;48.552;9.380;2024-03-07T14:49:03;44.92;;;22.20;;
62463;SDS011;48512;48.552;9.380;2024-03-07T14:51:30;44.83;;;20.60;;
62463;SDS011;48512;48.552;9.380;2024-03-07T14:53:56;47.67;;;22.90;;
62463;SDS011;48512;48.552;9.380;2024-03-07T14:56:23;53.60;;;22.90;;
62463;SDS011;48512;48.552;9.380;2024-03-07T14:58:49;47.75;;;21.67;;
62463;SDS011;48512;48.552;9.380;2024-03-07T15:01:15;48.10;;;22.73;;
62463;SDS011;48512;48.552;9.380;2024-03-07T15:03:42;49.92;;;22.65;;
62463;SDS011;48512;48.552;9.380;2024-03-07T15:06:11;44.67;;;22.38;;
62463;SDS011;48512;48.552;9.380;2024-03-07T15:08:40;45.00;;;21.42;;
62463;SDS011;48512;48.552;9.380;2024-03-07T15:13:39;47.83;;;21.75;;